createdAt,value
2023-04-16T00:00:09.313Z,101558.22
2023-04-16T00:02:37.343Z,101559.09
2023-04-16T00:05:05.776Z,101576.81
2023-04-16T00:07:34.946Z,101577.84
2023-04-16T00:10:02.740Z,101578.75
2023-04-16T00:12:30.532Z,101578.84
2023-04-16T00:14:58.322Z,101590.31
2023-04-16T00:17:26.463Z,101587.72
2023-04-16T00:19:54.235Z,101573.69
2023-04-16T00:22:21.912Z,101594.00
2023-04-16T00:24:52.146Z,101590.59
2023-04-16T00:27:20.156Z,101612.81
2023-04-16T00:29:47.973Z,101606.72
2023-04-16T00:32:16.112Z,101624.53
2023-04-16T00:34:43.840Z,101637.84
2023-04-16T00:37:11.609Z,101648.59
2023-04-16T00:39:39.466Z,101650.41
2023-04-16T00:42:08.764Z,101641.63
2023-04-16T00:44:37.094Z,101652.28
2023-04-16T00:47:07.576Z,101648.84
2023-04-16T00:49:36.952Z,101649.75
2023-04-16T00:52:04.886Z,101656.84
2023-04-16T00:54:33.117Z,101674.56
2023-04-16T00:57:01.591Z,101658.69
2023-04-16T00:59:30.760Z,101659.63
2023-04-16T01:01:58.584Z,101660.59
2023-04-16T01:04:26.639Z,101658.06
2023-04-16T01:06:54.781Z,101680.22
2023-04-16T01:09:22.447Z,101683.88
2023-04-16T01:11:50.208Z,101691.00
2023-04-16T01:14:17.884Z,101698.16
2023-04-16T01:16:47.098Z,101701.75
2023-04-16T01:19:14.785Z,101714.19
2023-04-16T01:21:43.972Z,101734.59
2023-04-16T01:24:11.777Z,101755.91
2023-04-16T01:26:39.488Z,101746.22
2023-04-16T01:29:07.566Z,101770.16
2023-04-16T01:31:35.699Z,101782.63
2023-04-16T01:34:03.476Z,101781.81
2023-04-16T01:36:31.284Z,101808.38
2023-04-16T01:39:00.712Z,101812.84
2023-04-16T01:41:28.503Z,101820.84
2023-04-16T01:43:56.317Z,101834.13
2023-04-16T01:46:29.221Z,101843.94
2023-04-16T01:48:57.575Z,101849.25
2023-04-16T01:51:25.355Z,101869.59
2023-04-16T01:53:53.111Z,101856.38
2023-04-16T01:56:22.320Z,101860.75
2023-04-16T01:58:50.054Z,101882.91
2023-04-16T02:01:17.965Z,101864.38
2023-04-16T02:03:46.095Z,101854.66
2023-04-16T02:06:14.767Z,101851.06
2023-04-16T02:08:43.295Z,101844.00
2023-04-16T02:11:11.297Z,101835.19
2023-04-16T02:13:40.489Z,101841.38
2023-04-16T02:16:09.001Z,101836.06
2023-04-16T02:18:36.881Z,101830.81
2023-04-16T02:21:06.419Z,101853.81
2023-04-16T02:23:34.254Z,101839.66
2023-04-16T02:26:02.136Z,101849.38
2023-04-16T02:28:30.018Z,101847.56
2023-04-16T02:30:59.752Z,101837.00
2023-04-16T02:33:28.677Z,101843.16
2023-04-16T02:35:56.483Z,101844.00
2023-04-16T02:38:24.220Z,101847.50
2023-04-16T02:40:52.175Z,101852.84
2023-04-16T02:43:20.404Z,101830.75
2023-04-16T02:45:48.282Z,101844.88
2023-04-16T02:48:17.917Z,101851.06
2023-04-16T02:50:45.584Z,101871.41
2023-04-16T02:53:13.327Z,101853.72
2023-04-16T02:55:41.070Z,101846.59
2023-04-16T02:58:08.828Z,101861.63
2023-04-16T03:00:36.526Z,101843.94
2023-04-16T03:03:04.787Z,101833.31
2023-04-16T03:05:33.966Z,101813.91
2023-04-16T03:08:01.766Z,101821.88
2023-04-16T03:10:29.516Z,101805.16
2023-04-16T03:12:57.276Z,101812.31
2023-04-16T03:15:25.320Z,101831.81
2023-04-16T03:17:53.095Z,101855.75
2023-04-16T03:20:21.134Z,101860.28
2023-04-16T03:22:52.406Z,101881.50
2023-04-16T03:25:20.520Z,101894.84
2023-04-16T03:27:48.343Z,101916.09
2023-04-16T03:30:16.714Z,101903.81
2023-04-16T03:32:44.454Z,101929.47
2023-04-16T03:35:12.793Z,101932.13
2023-04-16T03:37:40.502Z,101933.91
2023-04-16T03:40:10.412Z,101938.38
2023-04-16T03:42:38.258Z,101944.56
2023-04-16T03:45:06.788Z,101948.94
2023-04-16T03:47:34.707Z,101950.75
2023-04-16T03:50:02.603Z,101955.22
2023-04-16T03:52:30.487Z,101955.28
2023-04-16T03:54:58.129Z,101972.09
2023-04-16T03:57:27.308Z,101980.09
2023-04-16T03:59:55.038Z,101976.59
2023-04-16T04:02:23.067Z,101990.78
2023-04-16T04:04:51.014Z,101993.44
2023-04-16T04:07:18.913Z,102003.16
2023-04-16T04:09:46.731Z,102021.78
2023-04-16T04:12:14.522Z,102024.47
2023-04-16T04:14:43.710Z,102038.59
2023-04-16T04:17:11.461Z,102046.56
2023-04-16T04:19:44.486Z,102054.53
2023-04-16T04:22:18.635Z,102054.56
2023-04-16T04:24:46.467Z,102045.78
2023-04-16T04:27:14.286Z,102060.81
2023-04-16T04:29:43.550Z,102083.00
2023-04-16T04:32:11.340Z,102098.97
2023-04-16T04:34:39.094Z,102107.84
2023-04-16T04:37:06.878Z,102107.81
2023-04-16T04:39:34.686Z,102124.63
2023-04-16T04:42:03.365Z,102109.63
2023-04-16T04:44:31.205Z,102133.50
2023-04-16T04:47:00.381Z,102133.50
2023-04-16T04:49:28.280Z,102138.75
2023-04-16T04:51:56.032Z,102140.53
2023-04-16T04:54:23.734Z,102116.66
2023-04-16T04:56:52.541Z,102114.88
2023-04-16T04:59:21.520Z,102117.53
2023-04-16T05:01:49.441Z,102105.22
2023-04-16T05:04:18.904Z,102128.16
2023-04-16T05:06:46.751Z,102133.47
2023-04-16T05:09:14.548Z,102129.91
2023-04-16T05:11:43.185Z,102135.19
2023-04-16T05:14:11.007Z,102124.63
2023-04-16T05:16:39.105Z,102151.97
2023-04-16T05:19:07.159Z,102122.75
2023-04-16T05:21:36.736Z,102126.31
2023-04-16T05:24:04.683Z,102125.44
2023-04-16T05:26:32.492Z,102156.41
2023-04-16T05:29:00.380Z,102137.78
2023-04-16T05:31:28.095Z,102136.00
2023-04-16T05:33:55.860Z,102136.00
2023-04-16T05:36:24.008Z,102130.59
2023-04-16T05:38:53.197Z,102142.97
2023-04-16T05:41:21.145Z,102142.94
2023-04-16T05:43:48.852Z,102119.00
2023-04-16T05:46:16.613Z,102112.75
2023-04-16T05:48:44.393Z,102092.41
2023-04-16T05:51:12.191Z,102091.53
2023-04-16T05:53:39.870Z,102101.16
2023-04-16T05:56:09.562Z,102077.25
2023-04-16T05:58:37.298Z,102092.25
2023-04-16T06:01:05.291Z,102095.78
2023-04-16T06:03:33.404Z,102076.38
2023-04-16T06:06:01.360Z,102086.97
2023-04-16T06:08:29.304Z,102093.09
2023-04-16T06:10:57.559Z,102087.78
2023-04-16T06:13:26.672Z,102091.28
2023-04-16T06:15:54.500Z,102082.44
2023-04-16T06:18:22.182Z,102050.63
2023-04-16T06:20:49.856Z,102069.13
2023-04-16T06:23:17.569Z,102054.16
2023-04-16T06:25:45.237Z,102085.97
2023-04-16T06:28:13.122Z,102113.31
2023-04-16T06:30:44.061Z,102088.50
2023-04-16T06:33:12.450Z,102070.72
2023-04-16T06:35:40.167Z,102044.13
2023-04-16T06:38:07.896Z,102040.59
2023-04-16T06:40:37.027Z,102025.50
2023-04-16T06:43:05.070Z,102031.72
2023-04-16T06:45:32.857Z,102017.47
2023-04-16T06:48:03.390Z,102010.38
2023-04-16T06:50:31.451Z,102003.34
2023-04-16T06:52:59.414Z,102035.19
2023-04-16T06:55:27.205Z,102029.81
2023-04-16T06:57:54.836Z,102039.47
2023-04-16T07:00:22.705Z,102049.06
2023-04-16T07:02:50.892Z,102049.00
2023-04-16T07:05:20.440Z,101984.47
2023-04-16T07:07:48.326Z,102018.91
2023-04-16T07:10:16.269Z,102022.44
2023-04-16T07:12:44.039Z,102015.28
2023-04-16T07:15:12.483Z,102008.25
2023-04-16T07:17:40.246Z,101973.75
2023-04-16T07:20:09.677Z,101976.34
2023-04-16T07:22:38.787Z,101973.69
2023-04-16T07:25:07.053Z,101978.13
2023-04-16T07:27:34.751Z,102000.19
2023-04-16T07:30:02.479Z,102008.09
2023-04-16T07:32:30.523Z,101972.69
2023-04-16T07:34:58.337Z,101982.38
2023-04-16T07:37:26.096Z,101974.34
2023-04-16T07:39:57.573Z,101930.19
2023-04-16T07:42:25.493Z,101967.28
2023-04-16T07:44:53.324Z,101969.88
2023-04-16T07:47:21.216Z,101942.44
2023-04-16T07:49:49.063Z,101930.03
2023-04-16T07:52:16.846Z,101952.03
2023-04-16T07:54:44.686Z,101941.38
2023-04-16T07:57:14.049Z,101937.75
2023-04-16T07:59:41.810Z,101958.00
2023-04-16T08:02:13.992Z,101952.59
2023-04-16T08:04:44.635Z,101915.47
2023-04-16T08:07:12.805Z,101946.38
2023-04-16T08:09:49.580Z,101883.66
2023-04-16T08:12:18.938Z,101917.22
2023-04-16T08:14:47.293Z,101919.81
2023-04-16T08:17:15.820Z,101921.53
2023-04-16T08:19:44.760Z,101921.66
2023-04-16T08:22:15.173Z,101896.00
2023-04-16T08:24:43.152Z,101929.59
2023-04-16T08:27:18.327Z,101931.31
2023-04-16T08:29:48.943Z,101941.81
2023-04-16T08:32:16.730Z,101925.03
2023-04-16T08:34:46.701Z,101933.91
2023-04-16T08:37:14.411Z,101935.63
2023-04-16T08:39:42.081Z,101947.97
2023-04-16T08:42:16.289Z,101937.25
2023-04-16T08:44:49.417Z,101949.59
2023-04-16T08:47:24.070Z,101972.47
2023-04-16T08:49:56.808Z,101944.84
2023-04-16T08:52:30.660Z,101918.13
2023-04-16T08:55:05.657Z,101933.78
2023-04-16T08:57:39.907Z,101919.47
2023-04-16T09:00:10.857Z,101884.78
2023-04-16T09:02:40.392Z,101878.44
2023-04-16T09:05:09.381Z,101926.75
2023-04-16T09:07:37.839Z,101910.59
2023-04-16T09:10:09.521Z,101860.03
2023-04-16T09:12:37.344Z,101808.63
2023-04-16T09:15:07.021Z,101817.47
2023-04-16T09:17:35.648Z,101824.38
2023-04-16T09:20:05.996Z,101801.38
2023-04-16T09:22:33.790Z,101829.50
2023-04-16T09:25:01.602Z,101796.50
2023-04-16T09:27:30.275Z,101846.88
2023-04-16T09:29:58.040Z,101822.72
2023-04-16T09:32:27.625Z,101850.63
2023-04-16T09:34:57.618Z,101785.97
2023-04-16T09:37:29.475Z,101790.06
2023-04-16T09:39:59.176Z,101892.25
2023-04-16T09:42:29.519Z,101807.59
2023-04-16T09:45:00.276Z,101768.44
2023-04-16T09:47:41.215Z,101769.28
2023-04-16T09:50:12.463Z,101747.09
2023-04-16T09:52:45.227Z,101701.94
2023-04-16T09:55:13.000Z,101710.94
2023-04-16T09:57:40.767Z,101645.84
2023-04-16T10:00:10.273Z,101705.94
2023-04-16T10:02:42.023Z,101687.41
2023-04-16T10:05:10.776Z,101706.81
2023-04-16T10:07:38.882Z,101705.91
2023-04-16T10:10:09.406Z,101708.66
2023-04-16T10:12:37.131Z,101703.31
2023-04-16T10:15:05.637Z,101767.78
2023-04-16T10:17:34.348Z,101736.53
2023-04-16T10:20:04.032Z,101733.50
2023-04-16T10:22:32.245Z,101749.97
2023-04-16T10:25:00.533Z,101779.63
2023-04-16T10:27:30.556Z,101771.19
2023-04-16T10:29:58.808Z,101761.72
2023-04-16T10:32:28.708Z,101836.16
2023-04-16T10:34:56.794Z,101799.78
2023-04-16T10:37:31.160Z,101678.09
2023-04-16T10:39:59.466Z,101719.38
2023-04-16T10:42:27.520Z,101745.41
2023-04-16T10:45:00.806Z,101634.69
2023-04-16T10:47:30.522Z,101617.63
2023-04-16T10:49:59.344Z,101584.03
2023-04-16T10:52:30.625Z,101456.38
2023-04-16T10:55:00.642Z,101502.06
2023-04-16T10:57:30.304Z,101501.88
2023-04-16T10:59:59.960Z,101481.72
2023-04-16T11:02:31.010Z,101474.81
2023-04-16T11:04:59.011Z,101528.56
2023-04-16T11:07:34.760Z,101569.75
2023-04-16T11:10:05.397Z,101558.50
2023-04-16T11:12:37.554Z,101595.81
2023-04-16T11:15:09.352Z,101631.28
2023-04-16T11:17:40.085Z,101665.84
2023-04-16T11:20:19.542Z,101672.72
2023-04-16T11:22:48.792Z,101668.00
2023-04-16T11:25:20.776Z,101723.31
2023-04-16T11:27:48.547Z,101732.84
2023-04-16T11:30:18.798Z,101740.41
2023-04-16T11:32:46.985Z,101745.97
2023-04-16T11:35:16.152Z,101671.09
2023-04-16T11:37:44.757Z,101654.88
2023-04-16T11:40:13.777Z,101673.97
2023-04-16T11:42:43.449Z,101622.00
2023-04-16T11:45:12.843Z,101627.25
2023-04-16T11:47:46.658Z,101595.28
2023-04-16T11:50:22.005Z,101615.75
2023-04-16T11:52:50.822Z,101518.88
2023-04-16T11:55:18.902Z,101530.84
2023-04-16T11:57:46.818Z,101464.13
2023-04-16T12:00:16.058Z,101519.69
2023-04-16T12:02:46.664Z,101467.50
2023-04-16T12:05:32.027Z,101377.81
2023-04-16T12:08:02.713Z,101349.31
2023-04-16T12:10:31.643Z,101351.66
2023-04-16T12:13:11.788Z,101341.94
2023-04-16T12:15:47.809Z,101301.25
2023-04-16T12:18:17.374Z,101406.72
2023-04-16T12:20:46.790Z,101396.78
2023-04-16T12:23:24.530Z,101251.44
2023-04-16T12:25:52.344Z,101344.63
2023-04-16T12:28:29.968Z,101294.91
2023-04-16T12:30:57.814Z,101284.63
2023-04-16T12:33:27.170Z,101344.03
2023-04-16T12:35:55.106Z,101288.84
2023-04-16T12:38:24.751Z,101302.88
2023-04-16T12:40:52.785Z,101351.06
2023-04-16T12:43:25.111Z,101350.09
2023-04-16T12:45:53.253Z,101245.41
2023-04-16T12:48:21.263Z,101303.50
2023-04-16T12:50:50.564Z,101212.06
2023-04-16T12:53:19.896Z,101170.16
2023-04-16T12:55:47.720Z,101146.88
2023-04-16T12:58:15.494Z,101206.44
2023-04-16T13:00:47.394Z,101189.78
2023-04-16T13:03:16.141Z,101178.34
2023-04-16T13:05:44.098Z,101237.72
2023-04-16T13:08:13.363Z,101152.47
2023-04-16T13:10:41.145Z,101167.81
2023-04-16T13:13:08.945Z,101263.03
2023-04-16T13:15:36.878Z,101247.66
2023-04-16T13:18:05.043Z,101160.03
2023-04-16T13:20:34.350Z,101206.00
2023-04-16T13:23:04.845Z,101159.00
2023-04-16T13:25:34.088Z,101214.97
2023-04-16T13:28:01.927Z,101224.59
2023-04-16T13:30:30.132Z,101178.53
2023-04-16T13:32:58.049Z,101152.06
2023-04-16T13:35:28.343Z,101202.59
2023-04-16T13:37:56.220Z,101209.97
2023-04-16T13:40:24.095Z,101238.78
2023-04-16T13:42:53.346Z,101217.72
2023-04-16T13:45:22.374Z,101270.69
2023-04-16T13:47:50.206Z,101243.28
2023-04-16T13:50:18.148Z,101264.53
2023-04-16T13:52:45.958Z,101265.47
2023-04-16T13:55:17.523Z,101296.25
2023-04-16T13:57:45.314Z,101236.06
2023-04-16T14:00:16.725Z,101225.16
2023-04-16T14:02:45.971Z,101230.34
2023-04-16T14:05:13.926Z,101264.72
2023-04-16T14:07:41.879Z,101254.81
2023-04-16T14:10:10.831Z,101167.84
2023-04-16T14:12:39.442Z,101188.38
2023-04-16T14:15:09.625Z,101199.50
2023-04-16T14:17:38.966Z,101238.06
2023-04-16T14:20:07.604Z,101167.41
2023-04-16T14:22:35.721Z,101113.47
2023-04-16T14:25:03.771Z,101109.78
2023-04-16T14:27:31.773Z,101135.63
2023-04-16T14:29:59.580Z,101191.19
2023-04-16T14:32:27.605Z,101193.44
2023-04-16T14:34:59.383Z,101197.69
2023-04-16T14:37:27.658Z,101131.72
2023-04-16T14:39:55.525Z,101137.31
2023-04-16T14:42:23.501Z,101192.13
2023-04-16T14:44:52.127Z,101160.00
2023-04-16T14:47:19.996Z,101104.69
2023-04-16T14:49:47.748Z,101140.78
2023-04-16T14:52:17.364Z,101114.53
2023-04-16T14:54:45.076Z,101131.19
2023-04-16T14:57:12.924Z,101001.19
2023-04-16T14:59:40.987Z,100930.19
2023-04-16T15:02:10.501Z,100973.41
2023-04-16T15:04:38.237Z,100884.94
2023-04-16T15:07:05.985Z,100809.75
2023-04-16T15:09:35.594Z,100775.63
2023-04-16T15:12:03.344Z,100860.13
2023-04-16T15:14:31.031Z,100752.03
2023-04-16T15:16:58.982Z,100785.16
2023-04-16T15:19:26.957Z,100781.63
2023-04-16T15:21:55.875Z,100820.34
2023-04-16T15:24:23.704Z,100795.31
2023-04-16T15:26:52.863Z,100769.53
2023-04-16T15:29:20.884Z,100768.88
2023-04-16T15:31:48.915Z,100787.59
2023-04-16T15:34:17.281Z,100776.03
2023-04-16T15:36:45.052Z,100810.03
2023-04-16T15:39:13.116Z,100841.81
2023-04-16T15:41:57.546Z,100814.03
2023-04-16T15:44:29.801Z,100805.03
2023-04-16T15:46:57.538Z,100775.19
2023-04-16T15:49:25.432Z,100793.13
2023-04-16T15:51:53.465Z,100800.19
2023-04-16T15:54:21.436Z,100818.75
2023-04-16T15:56:49.232Z,100757.31
2023-04-16T15:59:17.672Z,100722.00
2023-04-16T16:01:47.210Z,100651.28
2023-04-16T16:04:15.301Z,100650.72
2023-04-16T16:06:43.295Z,100716.69
2023-04-16T16:09:12.021Z,100696.31
2023-04-16T16:11:39.958Z,100656.47
2023-04-16T16:14:07.783Z,100678.81
2023-04-16T16:16:36.290Z,100697.78
2023-04-16T16:19:05.676Z,100649.13
2023-04-16T16:21:33.625Z,100661.69
2023-04-16T16:24:01.888Z,100654.59
2023-04-16T16:26:29.962Z,100684.25
2023-04-16T16:28:58.092Z,100651.31
2023-04-16T16:31:26.070Z,100641.81
2023-04-16T16:33:53.932Z,100656.91
2023-04-16T16:36:23.104Z,100635.59
2023-04-16T16:38:51.223Z,100636.38
2023-04-16T16:41:19.006Z,100639.22
2023-04-16T16:43:46.831Z,100641.13
2023-04-16T16:46:14.670Z,100682.06
2023-04-16T16:48:42.569Z,100714.41
2023-04-16T16:51:11.510Z,100742.16
2023-04-16T16:53:40.776Z,100754.81
2023-04-16T16:56:08.594Z,100789.78
2023-04-16T16:58:36.336Z,100809.47
2023-04-16T17:01:04.297Z,100861.84
2023-04-16T17:03:32.132Z,100935.53
2023-04-16T17:06:00.214Z,100980.78
2023-04-16T17:08:28.974Z,100995.22
2023-04-16T17:10:58.328Z,101037.94
2023-04-16T17:13:26.245Z,101053.56
2023-04-16T17:15:54.001Z,101050.25
2023-04-16T17:18:21.778Z,101062.94
2023-04-16T17:20:49.591Z,101093.38
2023-04-16T17:23:17.449Z,101091.91
2023-04-16T17:25:45.218Z,101110.59
2023-04-16T17:28:14.337Z,101111.69
2023-04-16T17:30:42.220Z,101122.63
2023-04-16T17:33:10.101Z,101152.06
2023-04-16T17:35:37.958Z,101146.75
2023-04-16T17:38:05.660Z,101166.28
2023-04-16T17:40:33.380Z,101171.75
2023-04-16T17:43:01.242Z,101187.88
2023-04-16T17:45:30.756Z,101203.78
2023-04-16T17:47:58.477Z,101207.44
2023-04-16T17:50:27.812Z,101210.28
2023-04-16T17:52:55.539Z,101210.47
2023-04-16T17:55:23.289Z,101221.31
2023-04-16T17:57:51.050Z,101156.59
2023-04-16T18:00:20.042Z,101112.28
2023-04-16T18:02:49.339Z,101067.06
2023-04-16T18:05:17.157Z,101043.44
2023-04-16T18:07:46.992Z,101059.44
2023-04-16T18:10:15.104Z,101028.56
2023-04-16T18:12:43.033Z,101016.59
2023-04-16T18:15:11.854Z,101013.16
2023-04-16T18:17:39.596Z,101017.03
2023-04-16T18:20:11.726Z,101032.34
2023-04-16T18:22:39.608Z,101037.09
2023-04-16T18:25:09.322Z,101050.72
2023-04-16T18:27:37.050Z,101056.19
2023-04-16T18:30:05.855Z,101081.22
2023-04-16T18:32:33.851Z,101086.75
2023-04-16T18:35:01.926Z,101109.28
2023-04-16T18:37:31.206Z,101124.75
2023-04-16T18:39:58.949Z,101189.66
2023-04-16T18:42:28.108Z,101199.53
2023-04-16T18:44:56.106Z,101212.03
2023-04-16T18:47:24.721Z,101211.34
2023-04-16T18:49:52.583Z,101230.16
2023-04-16T18:52:22.610Z,101241.00
2023-04-16T18:54:51.858Z,101251.72
2023-04-16T18:57:19.522Z,101268.53
2023-04-16T18:59:47.621Z,101279.19
2023-04-16T19:02:15.462Z,101299.59
2023-04-16T19:04:43.244Z,101312.06
2023-04-16T19:07:11.013Z,101332.50
2023-04-16T19:09:38.761Z,101338.84
2023-04-16T19:12:08.377Z,101339.81
2023-04-16T19:14:36.142Z,101341.72
2023-04-16T19:17:04.143Z,101342.59
2023-04-16T19:19:31.883Z,101337.34
2023-04-16T19:21:59.705Z,101349.88
2023-04-16T19:24:27.489Z,101353.53
2023-04-16T19:26:55.914Z,101358.91
2023-04-16T19:29:24.972Z,101370.47
2023-04-16T19:31:52.843Z,101377.53
2023-04-16T19:34:20.732Z,101385.47
2023-04-16T19:36:48.455Z,101391.69
2023-04-16T19:39:16.406Z,101400.53
2023-04-16T19:41:44.411Z,101399.72
2023-04-16T19:44:12.172Z,101413.19
2023-04-16T19:46:41.344Z,101435.38
2023-04-16T19:49:09.462Z,101449.50
2023-04-16T19:51:37.654Z,101462.72
2023-04-16T19:54:05.758Z,101469.06
2023-04-16T19:56:33.523Z,101478.75
2023-04-16T19:59:02.456Z,101481.47
2023-04-16T20:01:31.238Z,101474.31
2023-04-16T20:04:00.484Z,101477.81
2023-04-16T20:06:28.427Z,101478.75
2023-04-16T20:08:57.652Z,101472.53
2023-04-16T20:11:26.007Z,101467.19
2023-04-16T20:13:54.335Z,101458.31
2023-04-16T20:16:24.062Z,101461.88
2023-04-16T20:18:54.331Z,101454.81
2023-04-16T20:21:23.508Z,101454.81
2023-04-16T20:23:51.222Z,101449.53
2023-04-16T20:26:19.304Z,101438.03
2023-04-16T20:28:47.391Z,101426.47
2023-04-16T20:31:15.192Z,101425.59
2023-04-16T20:33:42.930Z,101411.56
2023-04-16T20:36:10.677Z,101432.66
2023-04-16T20:38:39.754Z,101414.06
2023-04-16T20:41:10.385Z,101392.91
2023-04-16T20:43:40.922Z,101391.13
2023-04-16T20:46:08.896Z,101372.59
2023-04-16T20:48:36.680Z,101378.75
2023-04-16T20:51:05.686Z,101360.19
2023-04-16T20:53:34.072Z,101361.19
2023-04-16T20:56:03.502Z,101341.91
2023-04-16T20:58:31.560Z,101357.16
2023-04-16T21:00:59.323Z,101383.81
2023-04-16T21:03:27.286Z,101391.91
2023-04-16T21:05:56.362Z,101412.38
2023-04-16T21:08:25.064Z,101412.56
2023-04-16T21:10:52.766Z,101425.03
2023-04-16T21:13:21.991Z,101441.84
2023-04-16T21:15:49.834Z,101435.69
2023-04-16T21:18:18.537Z,101426.78
2023-04-16T21:20:46.425Z,101419.78
2023-04-16T21:23:14.334Z,101433.94
2023-04-16T21:25:42.172Z,101429.66
2023-04-16T21:28:09.980Z,101440.22
2023-04-16T21:30:39.507Z,101441.19
2023-04-16T21:33:07.875Z,101438.63
2023-04-16T21:35:35.744Z,101432.44
2023-04-16T21:38:03.588Z,101451.88
2023-04-16T21:40:31.362Z,101448.41
2023-04-16T21:42:59.100Z,101465.19
2023-04-16T21:45:27.411Z,101469.56
2023-04-16T21:47:57.590Z,101458.19
2023-04-16T21:50:25.343Z,101469.69
2023-04-16T21:52:54.796Z,101462.66
2023-04-16T21:55:22.543Z,101452.91
2023-04-16T21:57:50.252Z,101438.72
2023-04-16T22:00:18.598Z,101419.28
2023-04-16T22:02:46.533Z,101404.22
2023-04-16T22:05:15.979Z,101396.31
2023-04-16T22:07:43.789Z,101383.09
2023-04-16T22:10:14.397Z,101376.16
2023-04-16T22:12:44.651Z,101368.19
2023-04-16T22:15:13.297Z,101364.69
2023-04-16T22:17:41.743Z,101354.16
2023-04-16T22:20:12.702Z,101355.06
2023-04-16T22:22:42.408Z,101328.69
2023-04-16T22:25:10.668Z,101336.72
2023-04-16T22:27:38.772Z,101325.25
2023-04-16T22:30:08.365Z,101332.38
2023-04-16T22:32:36.360Z,101319.13
2023-04-16T22:35:04.367Z,101310.41
2023-04-16T22:37:33.461Z,101320.28
2023-04-16T22:40:02.640Z,101317.66
2023-04-16T22:42:30.493Z,101310.66
2023-04-16T22:44:58.485Z,101308.97
2023-04-16T22:47:26.271Z,101317.03
2023-04-16T22:49:54.252Z,101311.75
2023-04-16T22:52:21.981Z,101309.19
2023-04-16T22:54:49.666Z,101295.94
2023-04-16T22:57:22.727Z,101295.09
2023-04-16T22:59:50.688Z,101288.94
2023-04-16T23:02:18.575Z,101274.91
2023-04-16T23:04:47.714Z,101262.66
2023-04-16T23:07:16.342Z,101260.94
2023-04-16T23:09:44.093Z,101261.91
2023-04-16T23:12:11.890Z,101261.16
2023-04-16T23:14:45.973Z,101261.28
2023-04-16T23:17:14.666Z,101259.53
2023-04-16T23:19:42.483Z,101254.31
2023-04-16T23:22:10.428Z,101248.19
2023-04-16T23:24:38.125Z,101252.66
2023-04-16T23:27:05.841Z,101255.38
2023-04-16T23:29:33.553Z,101251.78
2023-04-16T23:32:02.688Z,101235.91
2023-04-16T23:34:30.530Z,101234.22
2023-04-16T23:36:58.294Z,101246.56
2023-04-16T23:39:26.182Z,101248.44
2023-04-16T23:41:53.889Z,101248.44
2023-04-16T23:44:21.641Z,101245.84
2023-04-16T23:46:49.482Z,101240.56
2023-04-16T23:49:18.608Z,101234.53
2023-04-16T23:51:46.320Z,101255.78
2023-04-16T23:54:14.781Z,101242.53
2023-04-16T23:56:42.530Z,101247.94
2023-04-16T23:59:11.170Z,101247.06
